createdAt,value
2022-09-21T00:01:15.352Z,9.33
2022-09-21T00:03:43.300Z,9.33
2022-09-21T00:06:15.745Z,9.36
2022-09-21T00:08:43.488Z,9.32
2022-09-21T00:11:14.875Z,9.29
2022-09-21T00:13:44.286Z,9.30
2022-09-21T00:16:11.393Z,9.33
2022-09-21T00:18:38.534Z,9.30
2022-09-21T00:21:11.188Z,9.31
2022-09-21T00:23:38.498Z,9.32
2022-09-21T00:26:06.539Z,9.30
2022-09-21T00:28:34.100Z,9.32
2022-09-21T00:31:02.768Z,9.32
2022-09-21T00:33:29.859Z,9.34
2022-09-21T00:36:03.150Z,9.33
2022-09-21T00:38:30.657Z,9.36
2022-09-21T00:40:58.122Z,9.29
2022-09-21T00:43:25.494Z,9.29
2022-09-21T00:46:00.267Z,9.27
2022-09-21T00:48:28.587Z,9.27
2022-09-21T00:50:58.768Z,9.26
2022-09-21T00:53:28.179Z,9.24
2022-09-21T00:55:56.609Z,9.26
2022-09-21T00:58:31.032Z,9.26
2022-09-21T01:01:00.111Z,9.24
2022-09-21T01:03:29.123Z,9.25
2022-09-21T01:05:56.692Z,9.21
2022-09-21T01:08:26.095Z,9.15
2022-09-21T01:11:25.644Z,9.15
2022-09-21T01:14:21.808Z,9.15
2022-09-21T01:17:02.437Z,9.08
2022-09-21T01:19:48.014Z,9.07
2022-09-21T01:22:32.183Z,9.04
2022-09-21T01:25:14.371Z,9.05
2022-09-21T01:28:17.928Z,8.97
2022-09-21T01:30:48.904Z,8.96
2022-09-21T01:33:26.814Z,8.94
2022-09-21T01:36:01.242Z,8.96
2022-09-21T01:38:32.133Z,8.94
2022-09-21T01:41:02.626Z,8.95
2022-09-21T01:43:36.914Z,8.91
2022-09-21T01:46:05.771Z,8.94
2022-09-21T01:48:35.931Z,8.97
2022-09-21T01:51:06.390Z,8.93
2022-09-21T01:53:37.625Z,8.92
2022-09-21T01:56:25.907Z,8.93
2022-09-21T01:59:01.491Z,8.92
2022-09-21T02:01:28.946Z,8.93
2022-09-21T02:03:59.804Z,8.91
2022-09-21T02:06:28.843Z,8.93
2022-09-21T02:08:56.215Z,8.90
2022-09-21T02:11:23.710Z,8.86
2022-09-21T02:13:52.946Z,8.79
2022-09-21T02:16:31.795Z,8.77
2022-09-21T02:19:27.200Z,8.72
2022-09-21T02:21:54.141Z,8.74
2022-09-21T02:24:51.673Z,8.77
2022-09-21T02:27:42.983Z,8.79
2022-09-21T02:30:19.396Z,8.80
2022-09-21T02:33:02.017Z,8.75
2022-09-21T02:35:43.489Z,8.72
2022-09-21T02:38:17.595Z,8.74
2022-09-21T02:40:54.102Z,8.72
2022-09-21T02:43:27.722Z,8.66
2022-09-21T02:45:59.576Z,8.63
2022-09-21T02:48:33.567Z,8.66
2022-09-21T02:51:09.670Z,8.66
2022-09-21T02:53:38.246Z,8.70
2022-09-21T02:56:07.305Z,8.68
2022-09-21T02:58:43.655Z,8.58
2022-09-21T03:01:12.373Z,8.58
2022-09-21T03:03:39.409Z,8.58
2022-09-21T03:06:06.724Z,8.52
2022-09-21T03:08:33.783Z,8.48
2022-09-21T03:11:00.989Z,8.49
2022-09-21T03:13:28.057Z,8.52
2022-09-21T03:16:07.112Z,8.55
2022-09-21T03:18:34.990Z,8.58
2022-09-21T03:21:03.267Z,8.58
2022-09-21T03:23:30.537Z,8.59
2022-09-21T03:25:57.608Z,8.61
2022-09-21T03:28:24.761Z,8.58
2022-09-21T03:30:52.694Z,8.58
2022-09-21T03:33:20.561Z,8.58
2022-09-21T03:35:51.250Z,8.53
2022-09-21T03:38:19.066Z,8.54
2022-09-21T03:40:49.686Z,8.47
2022-09-21T03:43:17.118Z,8.44
2022-09-21T03:45:44.463Z,8.51
2022-09-21T03:48:15.749Z,8.53
2022-09-21T03:50:42.898Z,8.53
2022-09-21T03:53:10.761Z,8.53
2022-09-21T03:55:38.237Z,8.56
2022-09-21T03:58:05.485Z,8.53
2022-09-21T04:00:33.104Z,8.56
2022-09-21T04:03:00.395Z,8.57
2022-09-21T04:05:27.909Z,8.56
2022-09-21T04:07:56.459Z,8.48
2022-09-21T04:10:27.026Z,8.44
2022-09-21T04:12:57.256Z,8.41
2022-09-21T04:15:24.457Z,8.42
2022-09-21T04:17:52.242Z,8.40
2022-09-21T04:20:20.562Z,8.43
2022-09-21T04:22:47.860Z,8.42
2022-09-21T04:25:15.727Z,8.46
2022-09-21T04:27:43.595Z,8.45
2022-09-21T04:30:12.751Z,8.45
2022-09-21T04:32:40.401Z,8.44
2022-09-21T04:35:07.924Z,8.45
2022-09-21T04:37:35.052Z,8.43
2022-09-21T04:40:02.456Z,8.43
2022-09-21T04:42:29.673Z,8.45
2022-09-21T04:44:56.774Z,8.43
2022-09-21T04:47:23.915Z,8.38
2022-09-21T04:49:52.564Z,8.34
2022-09-21T04:52:19.801Z,8.31
2022-09-21T04:54:47.584Z,8.34
2022-09-21T04:57:15.281Z,8.31
2022-09-21T04:59:42.432Z,8.31
2022-09-21T05:02:10.102Z,8.30
2022-09-21T05:04:37.352Z,8.27
2022-09-21T05:07:04.502Z,8.25
2022-09-21T05:09:50.269Z,8.25
2022-09-21T05:12:17.408Z,8.34
2022-09-21T05:14:44.995Z,8.38
2022-09-21T05:17:12.655Z,8.35
2022-09-21T05:19:40.397Z,8.31
2022-09-21T05:22:07.566Z,8.30
2022-09-21T05:24:34.681Z,8.28
2022-09-21T05:27:01.759Z,8.26
2022-09-21T05:29:29.231Z,8.31
2022-09-21T05:32:28.155Z,8.30
2022-09-21T05:35:04.467Z,8.34
2022-09-21T05:37:52.430Z,8.35
2022-09-21T05:40:20.186Z,8.36
2022-09-21T05:42:47.663Z,8.42
2022-09-21T05:45:18.892Z,8.43
2022-09-21T05:48:16.518Z,8.45
2022-09-21T05:50:47.085Z,8.51
2022-09-21T05:53:38.698Z,8.56
2022-09-21T05:56:30.212Z,8.59
2022-09-21T05:59:18.266Z,8.58
2022-09-21T06:02:16.199Z,8.59
2022-09-21T06:04:43.519Z,8.61
2022-09-21T06:07:10.717Z,8.65
2022-09-21T06:09:42.446Z,8.69
2022-09-21T06:12:11.341Z,8.76
2022-09-21T06:14:38.674Z,8.82
2022-09-21T06:17:05.927Z,8.87
2022-09-21T06:19:33.055Z,8.91
2022-09-21T06:22:00.275Z,8.93
2022-09-21T06:24:27.352Z,8.95
2022-09-21T06:26:54.491Z,8.99
2022-09-21T06:29:23.640Z,9.03
2022-09-21T06:31:51.315Z,9.05
2022-09-21T06:34:18.738Z,9.13
2022-09-21T06:36:45.893Z,9.23
2022-09-21T06:39:13.168Z,9.30
2022-09-21T06:41:40.380Z,9.35
2022-09-21T06:44:07.504Z,9.41
2022-09-21T06:46:34.626Z,9.45
2022-09-21T06:49:01.704Z,9.49
2022-09-21T06:51:28.805Z,9.50
2022-09-21T06:53:56.996Z,9.55
2022-09-21T06:56:24.958Z,9.61
2022-09-21T06:58:52.576Z,9.58
2022-09-21T07:01:19.911Z,9.66
2022-09-21T07:03:50.937Z,9.72
2022-09-21T07:06:18.662Z,9.73
2022-09-21T07:11:34.325Z,9.81
2022-09-21T07:14:01.501Z,9.79
2022-09-21T07:16:28.622Z,9.77
2022-09-21T07:18:56.890Z,9.70
2022-09-21T07:21:24.131Z,9.69
2022-09-21T07:23:51.262Z,9.66
2022-09-21T07:26:18.426Z,9.70
2022-09-21T07:28:45.494Z,9.74
2022-09-21T07:31:14.627Z,9.78
2022-09-21T07:33:42.568Z,9.83
2022-09-21T07:36:10.756Z,9.89
2022-09-21T07:38:40.035Z,9.95
2022-09-21T07:41:07.844Z,9.99
2022-09-21T07:43:35.039Z,10.06
2022-09-21T07:46:02.320Z,10.10
2022-09-21T07:48:31.018Z,10.13
2022-09-21T07:51:04.909Z,10.20
2022-09-21T07:53:36.292Z,10.25
2022-09-21T07:56:08.665Z,10.36
2022-09-21T07:58:55.211Z,10.43
2022-09-21T08:01:23.220Z,10.44
2022-09-21T08:03:51.855Z,10.42
2022-09-21T08:06:19.850Z,10.45
2022-09-21T08:08:55.083Z,10.51
2022-09-21T08:11:23.869Z,10.55
2022-09-21T08:13:55.580Z,10.58
2022-09-21T08:16:24.045Z,10.68
2022-09-21T08:18:51.679Z,10.75
2022-09-21T08:21:20.321Z,10.84
2022-09-21T08:23:49.193Z,10.90
2022-09-21T08:26:19.065Z,10.94
2022-09-21T08:28:51.126Z,11.02
2022-09-21T08:31:20.408Z,11.08
2022-09-21T08:33:48.349Z,11.13
2022-09-21T08:36:15.689Z,11.18
2022-09-21T08:38:42.849Z,11.14
2022-09-21T08:41:24.850Z,11.18
2022-09-21T08:43:52.794Z,11.26
2022-09-21T08:46:25.634Z,11.37
2022-09-21T08:48:56.632Z,11.43
2022-09-21T08:51:26.889Z,11.49
2022-09-21T08:53:57.383Z,11.57
2022-09-21T08:56:41.591Z,11.68
2022-09-21T08:59:15.391Z,11.76
2022-09-21T09:01:58.682Z,11.84
2022-09-21T09:04:44.916Z,12.06
2022-09-21T09:07:43.615Z,12.09
2022-09-21T09:10:25.744Z,12.12
2022-09-21T09:13:05.756Z,12.23
2022-09-21T09:15:56.054Z,12.32
2022-09-21T09:18:33.935Z,12.37
2022-09-21T09:21:05.223Z,12.44
2022-09-21T09:23:35.088Z,12.49
2022-09-21T09:26:06.537Z,12.54
2022-09-21T09:28:36.454Z,12.63
2022-09-21T09:31:19.561Z,12.69
2022-09-21T09:33:52.929Z,12.82
2022-09-21T09:36:34.754Z,12.91
2022-09-21T09:39:15.110Z,12.96
2022-09-21T09:42:17.382Z,13.00
2022-09-21T09:44:54.722Z,13.16
2022-09-21T09:47:43.506Z,13.22
2022-09-21T09:50:21.960Z,13.27
2022-09-21T09:52:54.852Z,13.27
2022-09-21T09:55:30.174Z,13.36
2022-09-21T09:57:58.267Z,13.45
2022-09-21T10:00:26.243Z,13.59
2022-09-21T10:02:55.274Z,13.64
2022-09-21T10:05:32.889Z,13.71
2022-09-21T10:08:00.539Z,13.73
2022-09-21T10:10:36.286Z,13.81
2022-09-21T10:13:12.650Z,13.85
2022-09-21T10:15:44.214Z,13.83
2022-09-21T10:18:19.441Z,13.96
2022-09-21T10:20:56.431Z,14.10
2022-09-21T10:23:24.614Z,14.17
2022-09-21T10:26:01.383Z,14.32
2022-09-21T10:28:28.845Z,14.52
2022-09-21T10:31:29.553Z,14.73
2022-09-21T10:34:15.274Z,14.79
2022-09-21T10:36:51.675Z,14.92
2022-09-21T10:39:25.784Z,15.07
2022-09-21T10:42:13.927Z,15.26
2022-09-21T10:44:41.906Z,15.43
2022-09-21T10:47:29.150Z,15.62
2022-09-21T10:49:58.026Z,15.72
2022-09-21T10:52:36.372Z,15.78
2022-09-21T10:55:03.674Z,15.88
2022-09-21T10:57:32.562Z,16.00
2022-09-21T11:00:19.221Z,16.03
2022-09-21T11:02:48.093Z,16.05
2022-09-21T11:05:29.713Z,16.15
2022-09-21T11:08:19.242Z,16.33
2022-09-21T11:10:50.533Z,16.49
2022-09-21T11:13:25.630Z,16.56
2022-09-21T11:16:32.486Z,16.73
2022-09-21T11:19:47.914Z,16.92
2022-09-21T11:22:57.746Z,17.14
2022-09-21T11:25:44.029Z,17.35
2022-09-21T11:28:22.148Z,17.36
2022-09-21T11:31:01.844Z,17.26
2022-09-21T11:34:06.534Z,17.27
2022-09-21T11:36:57.505Z,17.06
2022-09-21T11:39:35.654Z,16.92
2022-09-21T11:42:11.060Z,16.94
2022-09-21T11:44:47.589Z,16.87
2022-09-21T11:47:26.684Z,16.66
2022-09-21T11:50:26.276Z,16.59
2022-09-21T11:53:25.580Z,16.65
2022-09-21T11:56:15.081Z,16.75
2022-09-21T11:58:58.912Z,17.01
2022-09-21T12:01:58.235Z,17.22
2022-09-21T12:04:34.978Z,17.29
2022-09-21T12:07:14.105Z,17.31
2022-09-21T12:09:52.978Z,17.32
2022-09-21T12:12:31.977Z,17.14
2022-09-21T12:15:18.467Z,17.09
2022-09-21T12:17:49.589Z,17.06
2022-09-21T12:20:31.581Z,17.21
2022-09-21T12:23:06.159Z,17.02
2022-09-21T12:25:37.463Z,16.82
2022-09-21T12:28:12.466Z,17.08
2022-09-21T12:30:41.940Z,17.58
2022-09-21T12:33:45.274Z,18.41
2022-09-21T12:36:41.132Z,18.86
2022-09-21T12:39:27.629Z,18.96
2022-09-21T12:42:01.993Z,19.64
2022-09-21T12:44:51.808Z,19.86
2022-09-21T12:48:06.185Z,20.02
2022-09-21T12:50:44.529Z,19.63
2022-09-21T12:53:18.853Z,19.14
2022-09-21T12:56:01.177Z,19.03
2022-09-21T12:58:50.655Z,18.91
2022-09-21T13:01:17.746Z,18.83
2022-09-21T13:03:55.091Z,18.56
2022-09-21T13:06:34.438Z,18.31
2022-09-21T13:09:03.357Z,18.00
2022-09-21T13:11:33.060Z,17.66
2022-09-21T13:14:02.248Z,17.79
2022-09-21T13:16:34.751Z,17.85
2022-09-21T13:19:24.057Z,18.15
2022-09-21T13:22:19.914Z,18.68
2022-09-21T13:25:18.378Z,18.93
2022-09-21T13:28:13.031Z,19.20
2022-09-21T13:30:41.477Z,18.90
2022-09-21T13:33:21.005Z,18.86
2022-09-21T13:36:05.134Z,19.16
2022-09-21T13:38:41.132Z,19.47
2022-09-21T13:41:13.152Z,19.57
2022-09-21T13:44:01.139Z,19.45
2022-09-21T13:46:37.133Z,19.92
2022-09-21T13:49:10.462Z,20.52
2022-09-21T13:52:03.076Z,21.07
2022-09-21T13:54:34.336Z,20.68
2022-09-21T13:57:14.980Z,20.54
2022-09-21T13:59:43.850Z,21.12
2022-09-21T14:02:32.507Z,21.89
2022-09-21T14:05:07.236Z,22.21
2022-09-21T14:07:34.776Z,22.54
2022-09-21T14:10:06.073Z,23.12
2022-09-21T14:12:45.689Z,23.24
2022-09-21T14:15:19.178Z,23.37
2022-09-21T14:18:16.428Z,23.81
2022-09-21T14:21:08.245Z,24.33
2022-09-21T14:23:37.316Z,24.18
2022-09-21T14:26:41.403Z,23.58
2022-09-21T14:29:17.496Z,23.82
2022-09-21T14:31:44.760Z,24.13
2022-09-21T14:34:17.575Z,23.70
2022-09-21T14:36:47.548Z,23.41
2022-09-21T14:39:29.117Z,23.55
2022-09-21T14:41:59.063Z,22.75
2022-09-21T14:44:32.187Z,22.69
2022-09-21T14:47:02.239Z,22.47
2022-09-21T14:50:07.045Z,23.01
2022-09-21T14:52:49.500Z,22.95
2022-09-21T14:55:27.840Z,23.17
2022-09-21T14:58:33.935Z,23.42
2022-09-21T15:01:23.080Z,23.67
2022-09-21T15:04:20.274Z,23.54
2022-09-21T15:07:39.536Z,22.96
2022-09-21T15:11:00.309Z,22.23
2022-09-21T15:14:04.732Z,22.54
2022-09-21T15:16:38.092Z,22.36
2022-09-21T15:19:18.904Z,22.10
2022-09-21T15:21:48.379Z,22.44
2022-09-21T15:24:21.325Z,22.52
2022-09-21T15:26:49.527Z,22.30
2022-09-21T15:29:27.943Z,22.28
2022-09-21T15:31:55.430Z,22.30
2022-09-21T15:34:23.444Z,21.81
2022-09-21T15:36:52.039Z,21.28
2022-09-21T15:39:30.290Z,21.38
2022-09-21T15:42:22.888Z,21.43
2022-09-21T15:44:55.153Z,21.31
2022-09-21T15:47:23.325Z,21.10
2022-09-21T15:49:52.623Z,20.96
2022-09-21T15:52:31.555Z,21.12
2022-09-21T15:55:02.739Z,21.32
2022-09-21T15:57:39.184Z,21.33
2022-09-21T16:00:38.713Z,21.30
2022-09-21T16:03:19.084Z,20.97
2022-09-21T16:05:48.880Z,20.92
2022-09-21T16:08:34.424Z,20.79
2022-09-21T16:11:26.169Z,20.86
2022-09-21T16:14:29.802Z,20.73
2022-09-21T16:17:09.158Z,20.59
2022-09-21T16:19:51.071Z,20.31
2022-09-21T16:22:20.984Z,20.03
2022-09-21T16:24:51.894Z,19.81
2022-09-21T16:27:20.907Z,19.65
2022-09-21T16:29:49.776Z,19.43
2022-09-21T16:32:26.406Z,19.40
2022-09-21T16:34:54.226Z,19.05
2022-09-21T16:37:28.766Z,19.01
2022-09-21T16:39:57.948Z,18.86
2022-09-21T16:42:31.221Z,18.72
2022-09-21T16:44:59.036Z,18.66
2022-09-21T16:47:27.354Z,18.53
2022-09-21T16:49:57.042Z,18.19
2022-09-21T16:52:24.196Z,17.98
2022-09-21T16:54:52.052Z,17.89
2022-09-21T16:57:19.155Z,17.77
2022-09-21T16:59:46.495Z,17.73
2022-09-21T17:02:15.165Z,17.64
2022-09-21T17:04:42.604Z,17.59
2022-09-21T17:07:13.535Z,17.61
2022-09-21T17:09:44.356Z,17.52
2022-09-21T17:12:14.886Z,17.48
2022-09-21T17:14:46.689Z,17.41
2022-09-21T17:17:19.591Z,17.32
2022-09-21T17:19:49.906Z,17.18
2022-09-21T17:22:18.180Z,17.07
2022-09-21T17:24:51.305Z,16.95
2022-09-21T17:27:24.305Z,16.79
2022-09-21T17:29:53.624Z,16.71
2022-09-21T17:32:22.960Z,16.53
2022-09-21T17:35:17.431Z,16.39
2022-09-21T17:37:45.073Z,16.32
2022-09-21T17:40:13.110Z,16.27
2022-09-21T17:42:42.429Z,16.17
2022-09-21T17:45:21.269Z,16.11
2022-09-21T17:47:50.336Z,15.95
2022-09-21T17:50:23.090Z,15.81
2022-09-21T17:53:09.163Z,15.69
2022-09-21T17:55:36.825Z,15.65
2022-09-21T17:58:51.520Z,15.60
2022-09-21T18:01:21.441Z,15.48
2022-09-21T18:03:49.069Z,15.36
2022-09-21T18:06:16.873Z,15.25
2022-09-21T18:08:44.124Z,15.18
2022-09-21T18:11:33.274Z,15.22
2022-09-21T18:14:21.441Z,15.09
2022-09-21T18:17:21.806Z,14.99
2022-09-21T18:20:05.311Z,14.86
2022-09-21T18:22:58.499Z,14.74
2022-09-21T18:25:33.208Z,14.62
2022-09-21T18:28:06.786Z,14.54
2022-09-21T18:30:37.096Z,14.45
2022-09-21T18:33:20.935Z,14.37
2022-09-21T18:36:26.209Z,14.26
2022-09-21T18:39:06.299Z,14.15
2022-09-21T18:41:43.613Z,14.16
2022-09-21T18:44:45.842Z,14.14
2022-09-21T18:47:48.606Z,14.06
2022-09-21T18:50:22.240Z,14.06
2022-09-21T18:53:16.793Z,14.05
2022-09-21T18:55:44.987Z,13.91
2022-09-21T18:58:12.188Z,13.91
2022-09-21T19:00:39.575Z,13.94
2022-09-21T19:03:19.340Z,13.89
2022-09-21T19:06:07.206Z,13.83
2022-09-21T19:08:38.926Z,13.72
2022-09-21T19:11:19.664Z,13.69
2022-09-21T19:14:05.740Z,13.66
2022-09-21T19:16:35.350Z,13.60
2022-09-21T19:19:17.618Z,13.55
2022-09-21T19:21:57.371Z,13.49
2022-09-21T19:24:31.807Z,13.41
2022-09-21T19:27:01.908Z,13.37
2022-09-21T19:29:41.228Z,13.30
2022-09-21T19:32:14.369Z,13.25
2022-09-21T19:34:41.662Z,13.20
2022-09-21T19:37:09.453Z,13.20
2022-09-21T19:39:37.586Z,13.18
2022-09-21T19:42:17.024Z,13.15
2022-09-21T19:45:11.464Z,13.05
2022-09-21T19:47:50.086Z,12.99
2022-09-21T19:50:18.682Z,12.97
2022-09-21T19:52:46.126Z,12.98
2022-09-21T19:55:37.052Z,12.85
2022-09-21T19:58:24.093Z,12.80
2022-09-21T20:00:53.696Z,12.84
2022-09-21T20:03:34.414Z,12.85
2022-09-21T20:06:04.580Z,12.75
2022-09-21T20:08:42.857Z,12.64
2022-09-21T20:11:17.383Z,12.54
2022-09-21T20:14:03.046Z,12.52
2022-09-21T20:16:53.479Z,12.52
2022-09-21T20:19:48.230Z,12.42
2022-09-21T20:22:24.242Z,12.46
2022-09-21T20:24:51.263Z,12.44
2022-09-21T20:27:27.511Z,12.42
2022-09-21T20:29:54.588Z,12.36
2022-09-21T20:32:22.334Z,12.31
2022-09-21T20:34:50.268Z,12.26
2022-09-21T20:37:17.370Z,12.23
2022-09-21T20:39:44.643Z,12.21
2022-09-21T20:42:23.621Z,12.26
2022-09-21T20:44:51.505Z,12.21
2022-09-21T20:47:20.180Z,12.22
2022-09-21T20:49:48.110Z,12.25
2022-09-21T20:52:17.911Z,12.22
2022-09-21T20:54:49.031Z,12.20
2022-09-21T20:57:17.712Z,12.16
2022-09-21T20:59:44.802Z,12.01
2022-09-21T21:02:13.056Z,12.04
2022-09-21T21:04:40.379Z,11.96
2022-09-21T21:07:07.614Z,11.99
2022-09-21T21:09:35.679Z,12.05
2022-09-21T21:12:02.770Z,12.08
2022-09-21T21:14:29.943Z,12.06
2022-09-21T21:16:57.170Z,12.08
2022-09-21T21:19:24.435Z,12.10
2022-09-21T21:21:51.495Z,12.05
2022-09-21T21:24:37.393Z,11.91
2022-09-21T21:27:04.636Z,11.86
2022-09-21T21:29:32.481Z,11.85
2022-09-21T21:32:00.121Z,11.85
2022-09-21T21:34:27.497Z,11.81
2022-09-21T21:36:55.169Z,11.78
2022-09-21T21:39:22.521Z,11.78
2022-09-21T21:41:49.668Z,11.78
2022-09-21T21:44:16.858Z,11.82
2022-09-21T21:46:43.974Z,11.76
2022-09-21T21:49:11.124Z,11.74
2022-09-21T21:51:38.230Z,11.66
2022-09-21T21:54:05.421Z,11.55
2022-09-21T21:56:32.585Z,11.50
2022-09-21T21:58:59.675Z,11.47
2022-09-21T22:01:29.320Z,11.45
2022-09-21T22:04:01.030Z,11.39
2022-09-21T22:06:29.785Z,11.44
2022-09-21T22:08:57.502Z,11.47
2022-09-21T22:11:26.107Z,11.43
2022-09-21T22:13:54.964Z,11.45
2022-09-21T22:16:23.834Z,11.42
2022-09-21T22:18:52.084Z,11.38
2022-09-21T22:21:26.101Z,11.41
2022-09-21T22:23:54.443Z,11.43
2022-09-21T22:26:22.609Z,11.45
2022-09-21T22:28:52.894Z,11.46
2022-09-21T22:31:23.094Z,11.44
2022-09-21T22:33:50.246Z,11.44
2022-09-21T22:36:18.847Z,11.49
2022-09-21T22:38:46.601Z,11.55
2022-09-21T22:41:22.083Z,11.50
2022-09-21T22:43:51.510Z,11.44
2022-09-21T22:46:19.047Z,11.37
2022-09-21T22:48:46.756Z,11.27
2022-09-21T22:51:14.643Z,11.18
2022-09-21T22:53:42.076Z,11.11
2022-09-21T22:56:16.350Z,11.15
2022-09-21T22:58:45.512Z,11.19
2022-09-21T23:01:21.116Z,11.22
2022-09-21T23:03:48.994Z,11.20
2022-09-21T23:06:18.156Z,11.12
2022-09-21T23:08:52.939Z,11.09
2022-09-21T23:11:23.122Z,11.06
2022-09-21T23:13:50.245Z,10.99
2022-09-21T23:16:18.302Z,11.07
2022-09-21T23:18:45.869Z,11.11
2022-09-21T23:21:14.569Z,11.09
2022-09-21T23:23:42.184Z,11.14
2022-09-21T23:26:14.870Z,11.15
2022-09-21T23:28:44.738Z,11.15
2022-09-21T23:31:14.122Z,11.13
2022-09-21T23:33:43.360Z,11.01
2022-09-21T23:36:12.669Z,10.98
2022-09-21T23:38:40.290Z,10.96
2022-09-21T23:41:09.765Z,10.90
2022-09-21T23:43:38.032Z,10.87
2022-09-21T23:46:06.116Z,10.88
2022-09-21T23:48:33.815Z,10.81
2022-09-21T23:51:01.055Z,10.81
2022-09-21T23:53:28.666Z,10.84
2022-09-21T23:55:56.199Z,10.83
2022-09-21T23:58:24.326Z,10.85
